sensor_id;sensor_type;location;lat;lon;timestamp;pressure;altitude;pressure_sealevel;temperature
54746;BMP180;40640;48.130;11.356;2022-12-18T00:01:45;96419.00;;;-3.40
54746;BMP180;40640;48.130;11.356;2022-12-18T00:05:48;96417.00;;;-3.50
54746;BMP180;40640;48.130;11.356;2022-12-18T00:09:51;96424.00;;;-3.60
54746;BMP180;40640;48.130;11.356;2022-12-18T00:13:57;96428.00;;;-3.50
54746;BMP180;40640;48.130;11.356;2022-12-18T00:18:00;96426.00;;;-3.70
54746;BMP180;40640;48.130;11.356;2022-12-18T00:22:03;96422.00;;;-3.60
54746;BMP180;40640;48.130;11.356;2022-12-18T00:26:08;96437.00;;;-3.70
54746;BMP180;40640;48.130;11.356;2022-12-18T00:30:13;96440.00;;;-3.60
54746;BMP180;40640;48.130;11.356;2022-12-18T00:34:17;96436.00;;;-3.70
54746;BMP180;40640;48.130;11.356;2022-12-18T00:38:19;96430.00;;;-3.60
54746;BMP180;40640;48.130;11.356;2022-12-18T00:42:24;96438.00;;;-3.50
54746;BMP180;40640;48.130;11.356;2022-12-18T00:46:47;96440.00;;;-3.50
54746;BMP180;40640;48.130;11.356;2022-12-18T00:50:50;96457.00;;;-3.30
54746;BMP180;40640;48.130;11.356;2022-12-18T00:54:53;96447.00;;;-3.40
54746;BMP180;40640;48.130;11.356;2022-12-18T00:58:56;96473.00;;;-3.20
54746;BMP180;40640;48.130;11.356;2022-12-18T01:03:00;96477.00;;;-3.00
54746;BMP180;40640;48.130;11.356;2022-12-18T01:07:03;96495.00;;;-3.10
54746;BMP180;40640;48.130;11.356;2022-12-18T01:11:10;96478.00;;;-3.20
54746;BMP180;40640;48.130;11.356;2022-12-18T01:15:13;96500.00;;;-3.20
54746;BMP180;40640;48.130;11.356;2022-12-18T01:19:18;96497.00;;;-3.10
54746;BMP180;40640;48.130;11.356;2022-12-18T01:23:21;96489.00;;;-3.10
54746;BMP180;40640;48.130;11.356;2022-12-18T01:27:24;96494.00;;;-3.20
54746;BMP180;40640;48.130;11.356;2022-12-18T01:31:28;96498.00;;;-3.20
54746;BMP180;40640;48.130;11.356;2022-12-18T01:35:33;96509.00;;;-3.20
54746;BMP180;40640;48.130;11.356;2022-12-18T01:39:42;96508.00;;;-3.10
54746;BMP180;40640;48.130;11.356;2022-12-18T01:43:48;96513.00;;;-3.10
54746;BMP180;40640;48.130;11.356;2022-12-18T01:47:55;96508.00;;;-3.20
54746;BMP180;40640;48.130;11.356;2022-12-18T01:51:59;96518.00;;;-3.30
54746;BMP180;40640;48.130;11.356;2022-12-18T01:56:03;96521.00;;;-3.30
54746;BMP180;40640;48.130;11.356;2022-12-18T02:00:09;96514.00;;;-3.40
54746;BMP180;40640;48.130;11.356;2022-12-18T02:04:20;96501.00;;;-3.30
54746;BMP180;40640;48.130;11.356;2022-12-18T02:08:31;96502.00;;;-3.50
54746;BMP180;40640;48.130;11.356;2022-12-18T02:12:42;96493.00;;;-3.30
54746;BMP180;40640;48.130;11.356;2022-12-18T02:16:51;96487.00;;;-3.40
54746;BMP180;40640;48.130;11.356;2022-12-18T02:21:00;96493.00;;;-3.40
54746;BMP180;40640;48.130;11.356;2022-12-18T02:25:21;96496.00;;;-3.50
54746;BMP180;40640;48.130;11.356;2022-12-18T02:29:31;96496.00;;;-3.60
54746;BMP180;40640;48.130;11.356;2022-12-18T02:33:35;96499.00;;;-3.50
54746;BMP180;40640;48.130;11.356;2022-12-18T02:37:40;96511.00;;;-3.40
54746;BMP180;40640;48.130;11.356;2022-12-18T02:41:45;96497.00;;;-3.40
54746;BMP180;40640;48.130;11.356;2022-12-18T02:45:50;96492.00;;;-3.50
54746;BMP180;40640;48.130;11.356;2022-12-18T02:50:02;96493.00;;;-3.40
54746;BMP180;40640;48.130;11.356;2022-12-18T02:54:18;96507.00;;;-3.50
54746;BMP180;40640;48.130;11.356;2022-12-18T02:58:30;96496.00;;;-3.70
54746;BMP180;40640;48.130;11.356;2022-12-18T03:02:46;96498.00;;;-3.70
54746;BMP180;40640;48.130;11.356;2022-12-18T03:06:55;96478.00;;;-3.80
54746;BMP180;40640;48.130;11.356;2022-12-18T03:11:02;96488.00;;;-3.80
54746;BMP180;40640;48.130;11.356;2022-12-18T03:15:10;96483.00;;;-3.70
54746;BMP180;40640;48.130;11.356;2022-12-18T03:19:22;96478.00;;;-3.80
54746;BMP180;40640;48.130;11.356;2022-12-18T03:23:36;96493.00;;;-3.80
54746;BMP180;40640;48.130;11.356;2022-12-18T03:27:46;96490.00;;;-3.90
54746;BMP180;40640;48.130;11.356;2022-12-18T03:31:54;96498.00;;;-3.80
54746;BMP180;40640;48.130;11.356;2022-12-18T03:36:02;96493.00;;;-3.70
54746;BMP180;40640;48.130;11.356;2022-12-18T03:40:07;96514.00;;;-3.60
54746;BMP180;40640;48.130;11.356;2022-12-18T03:44:14;96496.00;;;-3.80
54746;BMP180;40640;48.130;11.356;2022-12-18T03:48:27;96502.00;;;-4.10
54746;BMP180;40640;48.130;11.356;2022-12-18T03:52:41;96510.00;;;-4.10
54746;BMP180;40640;48.130;11.356;2022-12-18T03:56:51;96498.00;;;-4.10
54746;BMP180;40640;48.130;11.356;2022-12-18T04:00:59;96495.00;;;-4.10
54746;BMP180;40640;48.130;11.356;2022-12-18T04:05:06;96496.00;;;-4.10
54746;BMP180;40640;48.130;11.356;2022-12-18T04:09:13;96501.00;;;-4.20
54746;BMP180;40640;48.130;11.356;2022-12-18T04:13:24;96516.00;;;-4.10
54746;BMP180;40640;48.130;11.356;2022-12-18T04:17:27;96511.00;;;-4.10
54746;BMP180;40640;48.130;11.356;2022-12-18T04:21:31;96496.00;;;-4.20
54746;BMP180;40640;48.130;11.356;2022-12-18T04:25:36;96493.00;;;-4.20
54746;BMP180;40640;48.130;11.356;2022-12-18T04:29:45;96503.00;;;-3.80
54746;BMP180;40640;48.130;11.356;2022-12-18T04:33:49;96509.00;;;-3.90
54746;BMP180;40640;48.130;11.356;2022-12-18T04:37:52;96505.00;;;-3.90
54746;BMP180;40640;48.130;11.356;2022-12-18T04:41:57;96509.00;;;-3.80
54746;BMP180;40640;48.130;11.356;2022-12-18T04:46:03;96518.00;;;-3.60
54746;BMP180;40640;48.130;11.356;2022-12-18T04:50:07;96527.00;;;-3.70
54746;BMP180;40640;48.130;11.356;2022-12-18T04:54:10;96526.00;;;-3.80
54746;BMP180;40640;48.130;11.356;2022-12-18T04:58:14;96553.00;;;-3.60
54746;BMP180;40640;48.130;11.356;2022-12-18T05:02:17;96545.00;;;-3.50
54746;BMP180;40640;48.130;11.356;2022-12-18T05:06:20;96548.00;;;-3.70
54746;BMP180;40640;48.130;11.356;2022-12-18T05:10:23;96542.00;;;-3.50
54746;BMP180;40640;48.130;11.356;2022-12-18T05:14:27;96541.00;;;-3.70
54746;BMP180;40640;48.130;11.356;2022-12-18T05:18:31;96532.00;;;-3.40
54746;BMP180;40640;48.130;11.356;2022-12-18T05:22:33;96547.00;;;-3.60
54746;BMP180;40640;48.130;11.356;2022-12-18T05:26:36;96543.00;;;-3.80
54746;BMP180;40640;48.130;11.356;2022-12-18T05:30:41;96554.00;;;-3.80
54746;BMP180;40640;48.130;11.356;2022-12-18T05:34:44;96558.00;;;-4.00
54746;BMP180;40640;48.130;11.356;2022-12-18T05:38:46;96560.00;;;-3.80
54746;BMP180;40640;48.130;11.356;2022-12-18T05:42:49;96557.00;;;-4.00
54746;BMP180;40640;48.130;11.356;2022-12-18T05:46:53;96547.00;;;-3.90
54746;BMP180;40640;48.130;11.356;2022-12-18T05:51:03;96553.00;;;-3.80
54746;BMP180;40640;48.130;11.356;2022-12-18T05:55:07;96552.00;;;-4.00
54746;BMP180;40640;48.130;11.356;2022-12-18T05:59:09;96560.00;;;-3.80
54746;BMP180;40640;48.130;11.356;2022-12-18T06:03:14;96560.00;;;-3.90
54746;BMP180;40640;48.130;11.356;2022-12-18T06:07:17;96564.00;;;-3.90
54746;BMP180;40640;48.130;11.356;2022-12-18T06:11:22;96553.00;;;-4.10
54746;BMP180;40640;48.130;11.356;2022-12-18T06:15:26;96550.00;;;-3.80
54746;BMP180;40640;48.130;11.356;2022-12-18T06:19:30;96564.00;;;-3.90
54746;BMP180;40640;48.130;11.356;2022-12-18T06:23:33;96571.00;;;-3.80
54746;BMP180;40640;48.130;11.356;2022-12-18T06:27:37;96574.00;;;-3.60
54746;BMP180;40640;48.130;11.356;2022-12-18T06:31:39;96579.00;;;-4.00
54746;BMP180;40640;48.130;11.356;2022-12-18T06:35:44;96585.00;;;-4.10
54746;BMP180;40640;48.130;11.356;2022-12-18T06:39:46;96578.00;;;-4.30
54746;BMP180;40640;48.130;11.356;2022-12-18T06:43:49;96594.00;;;-4.20
54746;BMP180;40640;48.130;11.356;2022-12-18T06:47:58;96587.00;;;-4.30
54746;BMP180;40640;48.130;11.356;2022-12-18T06:52:03;96594.00;;;-4.20
54746;BMP180;40640;48.130;11.356;2022-12-18T06:56:07;96602.00;;;-4.10
54746;BMP180;40640;48.130;11.356;2022-12-18T07:00:12;96608.00;;;-4.10
54746;BMP180;40640;48.130;11.356;2022-12-18T07:04:15;96609.00;;;-4.20
54746;BMP180;40640;48.130;11.356;2022-12-18T07:08:19;96600.00;;;-4.20
54746;BMP180;40640;48.130;11.356;2022-12-18T07:12:23;96614.00;;;-4.10
54746;BMP180;40640;48.130;11.356;2022-12-18T07:16:26;96627.00;;;-4.20
54746;BMP180;40640;48.130;11.356;2022-12-18T07:20:29;96622.00;;;-4.30
54746;BMP180;40640;48.130;11.356;2022-12-18T07:24:33;96626.00;;;-4.30
54746;BMP180;40640;48.130;11.356;2022-12-18T07:28:38;96624.00;;;-4.30
54746;BMP180;40640;48.130;11.356;2022-12-18T07:32:41;96618.00;;;-4.30
54746;BMP180;40640;48.130;11.356;2022-12-18T07:36:44;96614.00;;;-4.30
54746;BMP180;40640;48.130;11.356;2022-12-18T07:40:48;96616.00;;;-4.00
54746;BMP180;40640;48.130;11.356;2022-12-18T07:44:50;96625.00;;;-3.60
54746;BMP180;40640;48.130;11.356;2022-12-18T07:48:53;96626.00;;;-3.70
54746;BMP180;40640;48.130;11.356;2022-12-18T07:52:56;96635.00;;;-3.50
54746;BMP180;40640;48.130;11.356;2022-12-18T07:57:00;96644.00;;;-3.30
54746;BMP180;40640;48.130;11.356;2022-12-18T08:01:04;96652.00;;;-3.20
54746;BMP180;40640;48.130;11.356;2022-12-18T08:05:09;96646.00;;;-3.20
54746;BMP180;40640;48.130;11.356;2022-12-18T08:09:12;96647.00;;;-3.30
54746;BMP180;40640;48.130;11.356;2022-12-18T08:13:16;96651.00;;;-3.50
54746;BMP180;40640;48.130;11.356;2022-12-18T08:17:19;96664.00;;;-3.60
54746;BMP180;40640;48.130;11.356;2022-12-18T08:21:24;96659.00;;;-3.50
54746;BMP180;40640;48.130;11.356;2022-12-18T08:25:27;96663.00;;;-3.70
54746;BMP180;40640;48.130;11.356;2022-12-18T08:29:31;96657.00;;;-3.60
54746;BMP180;40640;48.130;11.356;2022-12-18T08:33:36;96660.00;;;-3.50
54746;BMP180;40640;48.130;11.356;2022-12-18T08:37:40;96656.00;;;-3.40
54746;BMP180;40640;48.130;11.356;2022-12-18T08:41:43;96673.00;;;-3.10
54746;BMP180;40640;48.130;11.356;2022-12-18T08:46:12;96667.00;;;-3.20
54746;BMP180;40640;48.130;11.356;2022-12-18T08:50:16;96665.00;;;-3.20
54746;BMP180;40640;48.130;11.356;2022-12-18T08:54:19;96670.00;;;-2.90
54746;BMP180;40640;48.130;11.356;2022-12-18T08:58:22;96689.00;;;-2.90
54746;BMP180;40640;48.130;11.356;2022-12-18T09:02:26;96682.00;;;-3.20
54746;BMP180;40640;48.130;11.356;2022-12-18T09:06:29;96668.00;;;-3.20
54746;BMP180;40640;48.130;11.356;2022-12-18T09:10:32;96686.00;;;-3.30
54746;BMP180;40640;48.130;11.356;2022-12-18T09:14:42;96685.00;;;-3.20
54746;BMP180;40640;48.130;11.356;2022-12-18T09:18:46;96674.00;;;-2.80
54746;BMP180;40640;48.130;11.356;2022-12-18T09:22:49;96677.00;;;-2.80
54746;BMP180;40640;48.130;11.356;2022-12-18T09:26:53;96672.00;;;-3.00
54746;BMP180;40640;48.130;11.356;2022-12-18T09:30:58;96677.00;;;-3.10
54746;BMP180;40640;48.130;11.356;2022-12-18T09:35:03;96676.00;;;-3.30
54746;BMP180;40640;48.130;11.356;2022-12-18T09:39:06;96669.00;;;-3.20
54746;BMP180;40640;48.130;11.356;2022-12-18T09:43:14;96680.00;;;-2.90
54746;BMP180;40640;48.130;11.356;2022-12-18T09:47:22;96668.00;;;-3.40
54746;BMP180;40640;48.130;11.356;2022-12-18T09:51:29;96685.00;;;-2.20
54746;BMP180;40640;48.130;11.356;2022-12-18T09:55:34;96687.00;;;-2.10
54746;BMP180;40640;48.130;11.356;2022-12-18T09:59:39;96685.00;;;-2.20
54746;BMP180;40640;48.130;11.356;2022-12-18T10:03:43;96657.00;;;-2.40
54746;BMP180;40640;48.130;11.356;2022-12-18T10:07:54;96662.00;;;-2.60
54746;BMP180;40640;48.130;11.356;2022-12-18T10:12:04;96670.00;;;-2.20
54746;BMP180;40640;48.130;11.356;2022-12-18T10:16:13;96669.00;;;-2.10
54746;BMP180;40640;48.130;11.356;2022-12-18T10:20:24;96661.00;;;-1.90
54746;BMP180;40640;48.130;11.356;2022-12-18T10:24:36;96654.00;;;-1.70
54746;BMP180;40640;48.130;11.356;2022-12-18T10:28:41;96634.00;;;-1.70
54746;BMP180;40640;48.130;11.356;2022-12-18T10:32:44;96645.00;;;-1.50
54746;BMP180;40640;48.130;11.356;2022-12-18T10:36:47;96645.00;;;-1.60
54746;BMP180;40640;48.130;11.356;2022-12-18T10:40:54;96642.00;;;-1.80
54746;BMP180;40640;48.130;11.356;2022-12-18T10:45:02;96643.00;;;-2.30
54746;BMP180;40640;48.130;11.356;2022-12-18T10:49:18;96637.00;;;-2.30
54746;BMP180;40640;48.130;11.356;2022-12-18T10:53:23;96641.00;;;-2.10
54746;BMP180;40640;48.130;11.356;2022-12-18T10:57:34;96639.00;;;-1.90
54746;BMP180;40640;48.130;11.356;2022-12-18T11:01:48;96658.00;;;-1.90
54746;BMP180;40640;48.130;11.356;2022-12-18T11:06:01;96657.00;;;-1.40
54746;BMP180;40640;48.130;11.356;2022-12-18T11:10:14;96659.00;;;-1.10
54746;BMP180;40640;48.130;11.356;2022-12-18T11:14:22;96678.00;;;-0.70
54746;BMP180;40640;48.130;11.356;2022-12-18T11:18:27;96675.00;;;-1.00
54746;BMP180;40640;48.130;11.356;2022-12-18T11:22:32;96671.00;;;-1.10
54746;BMP180;40640;48.130;11.356;2022-12-18T11:26:36;96658.00;;;-1.40
54746;BMP180;40640;48.130;11.356;2022-12-18T11:30:41;96650.00;;;-1.40
54746;BMP180;40640;48.130;11.356;2022-12-18T11:34:46;96648.00;;;-1.70
54746;BMP180;40640;48.130;11.356;2022-12-18T11:38:59;96632.00;;;-1.80
54746;BMP180;40640;48.130;11.356;2022-12-18T11:43:10;96642.00;;;-1.30
54746;BMP180;40640;48.130;11.356;2022-12-18T11:47:25;96631.00;;;-2.00
54746;BMP180;40640;48.130;11.356;2022-12-18T11:51:38;96627.00;;;-1.40
54746;BMP180;40640;48.130;11.356;2022-12-18T11:55:51;96622.00;;;-1.60
54746;BMP180;40640;48.130;11.356;2022-12-18T12:00:01;96624.00;;;-1.50
54746;BMP180;40640;48.130;11.356;2022-12-18T12:04:32;96625.00;;;-1.60
54746;BMP180;40640;48.130;11.356;2022-12-18T12:08:49;96628.00;;;-1.30
54746;BMP180;40640;48.130;11.356;2022-12-18T12:13:10;96624.00;;;-1.50
54746;BMP180;40640;48.130;11.356;2022-12-18T12:17:26;96618.00;;;-1.90
54746;BMP180;40640;48.130;11.356;2022-12-18T12:21:38;96621.00;;;-1.70
54746;BMP180;40640;48.130;11.356;2022-12-18T12:25:46;96620.00;;;-1.90
54746;BMP180;40640;48.130;11.356;2022-12-18T12:29:59;96605.00;;;-2.30
54746;BMP180;40640;48.130;11.356;2022-12-18T12:34:09;96601.00;;;-2.40
54746;BMP180;40640;48.130;11.356;2022-12-18T12:38:18;96607.00;;;-2.60
54746;BMP180;40640;48.130;11.356;2022-12-18T12:42:29;96604.00;;;-2.00
54746;BMP180;40640;48.130;11.356;2022-12-18T12:46:54;96611.00;;;-1.90
54746;BMP180;40640;48.130;11.356;2022-12-18T12:50:57;96610.00;;;-1.80
54746;BMP180;40640;48.130;11.356;2022-12-18T12:55:04;96609.00;;;-1.50
54746;BMP180;40640;48.130;11.356;2022-12-18T12:59:20;96618.00;;;-1.30
54746;BMP180;40640;48.130;11.356;2022-12-18T13:03:33;96612.00;;;-1.40
54746;BMP180;40640;48.130;11.356;2022-12-18T13:07:42;96612.00;;;-1.60
54746;BMP180;40640;48.130;11.356;2022-12-18T13:11:50;96613.00;;;-1.80
54746;BMP180;40640;48.130;11.356;2022-12-18T13:16:10;96618.00;;;-2.20
54746;BMP180;40640;48.130;11.356;2022-12-18T13:20:14;96626.00;;;-2.10
54746;BMP180;40640;48.130;11.356;2022-12-18T13:24:24;96615.00;;;-2.10
54746;BMP180;40640;48.130;11.356;2022-12-18T13:28:51;96609.00;;;-2.10
54746;BMP180;40640;48.130;11.356;2022-12-18T13:38:21;96611.00;;;-2.20
54746;BMP180;40640;48.130;11.356;2022-12-18T13:42:39;96604.00;;;-2.20
54746;BMP180;40640;48.130;11.356;2022-12-18T13:47:03;96600.00;;;-2.60
54746;BMP180;40640;48.130;11.356;2022-12-18T13:51:08;96599.00;;;-2.70
54746;BMP180;40640;48.130;11.356;2022-12-18T13:55:17;96592.00;;;-3.00
54746;BMP180;40640;48.130;11.356;2022-12-18T13:59:23;96587.00;;;-2.80
54746;BMP180;40640;48.130;11.356;2022-12-18T14:03:29;96602.00;;;-2.50
54746;BMP180;40640;48.130;11.356;2022-12-18T14:07:32;96609.00;;;-2.60
54746;BMP180;40640;48.130;11.356;2022-12-18T14:11:47;96609.00;;;-2.50
54746;BMP180;40640;48.130;11.356;2022-12-18T14:15:50;96606.00;;;-2.60
54746;BMP180;40640;48.130;11.356;2022-12-18T14:19:55;96618.00;;;-2.30
54746;BMP180;40640;48.130;11.356;2022-12-18T14:24:13;96613.00;;;-2.50
54746;BMP180;40640;48.130;11.356;2022-12-18T14:28:20;96609.00;;;-2.30
54746;BMP180;40640;48.130;11.356;2022-12-18T14:32:23;96617.00;;;-2.70
54746;BMP180;40640;48.130;11.356;2022-12-18T14:36:28;96610.00;;;-2.70
54746;BMP180;40640;48.130;11.356;2022-12-18T14:40:31;96609.00;;;-2.20
54746;BMP180;40640;48.130;11.356;2022-12-18T14:44:34;96610.00;;;-2.40
54746;BMP180;40640;48.130;11.356;2022-12-18T14:48:57;96603.00;;;-2.60
54746;BMP180;40640;48.130;11.356;2022-12-18T14:53:01;96622.00;;;-2.70
54746;BMP180;40640;48.130;11.356;2022-12-18T14:57:06;96616.00;;;-2.60
54746;BMP180;40640;48.130;11.356;2022-12-18T15:01:24;96614.00;;;-2.90
54746;BMP180;40640;48.130;11.356;2022-12-18T15:05:29;96604.00;;;-3.20
54746;BMP180;40640;48.130;11.356;2022-12-18T15:09:34;96601.00;;;-3.40
54746;BMP180;40640;48.130;11.356;2022-12-18T15:13:36;96604.00;;;-3.40
54746;BMP180;40640;48.130;11.356;2022-12-18T15:17:40;96608.00;;;-3.50
54746;BMP180;40640;48.130;11.356;2022-12-18T15:21:43;96614.00;;;-3.30
54746;BMP180;40640;48.130;11.356;2022-12-18T15:25:49;96609.00;;;-3.20
54746;BMP180;40640;48.130;11.356;2022-12-18T15:30:16;96622.00;;;-3.30
54746;BMP180;40640;48.130;11.356;2022-12-18T15:34:20;96612.00;;;-3.30
54746;BMP180;40640;48.130;11.356;2022-12-18T15:38:23;96607.00;;;-3.50
54746;BMP180;40640;48.130;11.356;2022-12-18T15:42:28;96606.00;;;-3.50
54746;BMP180;40640;48.130;11.356;2022-12-18T15:46:49;96600.00;;;-3.30
54746;BMP180;40640;48.130;11.356;2022-12-18T15:50:53;96604.00;;;-3.00
54746;BMP180;40640;48.130;11.356;2022-12-18T15:54:58;96587.00;;;-3.10
54746;BMP180;40640;48.130;11.356;2022-12-18T15:59:20;96588.00;;;-2.80
54746;BMP180;40640;48.130;11.356;2022-12-18T16:03:23;96602.00;;;-2.90
54746;BMP180;40640;48.130;11.356;2022-12-18T16:07:26;96611.00;;;-2.90
54746;BMP180;40640;48.130;11.356;2022-12-18T16:11:33;96582.00;;;-3.10
54746;BMP180;40640;48.130;11.356;2022-12-18T16:15:44;96593.00;;;-3.30
54746;BMP180;40640;48.130;11.356;2022-12-18T16:19:47;96593.00;;;-2.90
54746;BMP180;40640;48.130;11.356;2022-12-18T16:23:50;96589.00;;;-3.10
54746;BMP180;40640;48.130;11.356;2022-12-18T16:27:55;96588.00;;;-3.20
54746;BMP180;40640;48.130;11.356;2022-12-18T16:32:00;96599.00;;;-3.30
54746;BMP180;40640;48.130;11.356;2022-12-18T16:36:03;96599.00;;;-3.30
54746;BMP180;40640;48.130;11.356;2022-12-18T16:40:07;96587.00;;;-3.60
54746;BMP180;40640;48.130;11.356;2022-12-18T16:44:11;96589.00;;;-3.40
54746;BMP180;40640;48.130;11.356;2022-12-18T16:48:15;96594.00;;;-3.60
54746;BMP180;40640;48.130;11.356;2022-12-18T16:52:18;96585.00;;;-3.50
54746;BMP180;40640;48.130;11.356;2022-12-18T16:56:21;96570.00;;;-3.60
54746;BMP180;40640;48.130;11.356;2022-12-18T17:00:24;96596.00;;;-3.60
54746;BMP180;40640;48.130;11.356;2022-12-18T17:04:28;96583.00;;;-3.60
54746;BMP180;40640;48.130;11.356;2022-12-18T17:08:31;96591.00;;;-3.50
54746;BMP180;40640;48.130;11.356;2022-12-18T17:12:34;96600.00;;;-3.20
54746;BMP180;40640;48.130;11.356;2022-12-18T17:16:37;96593.00;;;-3.20
54746;BMP180;40640;48.130;11.356;2022-12-18T17:20:42;96576.00;;;-3.50
54746;BMP180;40640;48.130;11.356;2022-12-18T17:24:45;96565.00;;;-3.60
54746;BMP180;40640;48.130;11.356;2022-12-18T17:28:48;96569.00;;;-3.80
54746;BMP180;40640;48.130;11.356;2022-12-18T17:32:51;96582.00;;;-3.80
54746;BMP180;40640;48.130;11.356;2022-12-18T17:36:55;96571.00;;;-4.00
54746;BMP180;40640;48.130;11.356;2022-12-18T17:40:59;96578.00;;;-3.50
54746;BMP180;40640;48.130;11.356;2022-12-18T17:45:03;96596.00;;;-3.20
54746;BMP180;40640;48.130;11.356;2022-12-18T17:49:08;96585.00;;;-3.40
54746;BMP180;40640;48.130;11.356;2022-12-18T17:53:13;96583.00;;;-3.80
54746;BMP180;40640;48.130;11.356;2022-12-18T17:57:17;96568.00;;;-4.10
54746;BMP180;40640;48.130;11.356;2022-12-18T18:01:22;96570.00;;;-3.90
54746;BMP180;40640;48.130;11.356;2022-12-18T18:05:25;96566.00;;;-3.60
54746;BMP180;40640;48.130;11.356;2022-12-18T18:09:29;96563.00;;;-3.60
54746;BMP180;40640;48.130;11.356;2022-12-18T18:13:32;96561.00;;;-4.00
54746;BMP180;40640;48.130;11.356;2022-12-18T18:17:53;96568.00;;;-4.00
54746;BMP180;40640;48.130;11.356;2022-12-18T18:21:56;96570.00;;;-3.70
54746;BMP180;40640;48.130;11.356;2022-12-18T18:26:03;96565.00;;;-3.00
54746;BMP180;40640;48.130;11.356;2022-12-18T18:30:07;96574.00;;;-2.90
54746;BMP180;40640;48.130;11.356;2022-12-18T18:34:13;96563.00;;;-3.20
54746;BMP180;40640;48.130;11.356;2022-12-18T18:38:16;96562.00;;;-3.50
54746;BMP180;40640;48.130;11.356;2022-12-18T18:42:21;96558.00;;;-3.60
54746;BMP180;40640;48.130;11.356;2022-12-18T18:46:25;96552.00;;;-3.80
54746;BMP180;40640;48.130;11.356;2022-12-18T18:50:28;96556.00;;;-3.80
54746;BMP180;40640;48.130;11.356;2022-12-18T18:54:30;96548.00;;;-3.90
54746;BMP180;40640;48.130;11.356;2022-12-18T18:58:35;96549.00;;;-3.40
54746;BMP180;40640;48.130;11.356;2022-12-18T19:02:38;96550.00;;;-3.30
54746;BMP180;40640;48.130;11.356;2022-12-18T19:06:41;96544.00;;;-3.60
54746;BMP180;40640;48.130;11.356;2022-12-18T19:10:50;96541.00;;;-4.00
54746;BMP180;40640;48.130;11.356;2022-12-18T19:14:59;96540.00;;;-3.90
54746;BMP180;40640;48.130;11.356;2022-12-18T19:19:03;96551.00;;;-4.10
54746;BMP180;40640;48.130;11.356;2022-12-18T19:23:06;96545.00;;;-4.00
54746;BMP180;40640;48.130;11.356;2022-12-18T19:27:08;96544.00;;;-4.00
54746;BMP180;40640;48.130;11.356;2022-12-18T19:31:15;96550.00;;;-3.90
54746;BMP180;40640;48.130;11.356;2022-12-18T19:35:28;96551.00;;;-3.80
54746;BMP180;40640;48.130;11.356;2022-12-18T19:39:31;96544.00;;;-4.00
54746;BMP180;40640;48.130;11.356;2022-12-18T19:43:35;96548.00;;;-3.90
54746;BMP180;40640;48.130;11.356;2022-12-18T19:47:39;96544.00;;;-3.70
54746;BMP180;40640;48.130;11.356;2022-12-18T19:51:42;96537.00;;;-3.80
54746;BMP180;40640;48.130;11.356;2022-12-18T19:55:45;96542.00;;;-3.90
54746;BMP180;40640;48.130;11.356;2022-12-18T19:59:49;96527.00;;;-3.80
54746;BMP180;40640;48.130;11.356;2022-12-18T20:03:53;96544.00;;;-3.50
54746;BMP180;40640;48.130;11.356;2022-12-18T20:07:58;96538.00;;;-3.50
54746;BMP180;40640;48.130;11.356;2022-12-18T20:12:01;96513.00;;;-3.60
54746;BMP180;40640;48.130;11.356;2022-12-18T20:16:04;96506.00;;;-3.80
54746;BMP180;40640;48.130;11.356;2022-12-18T20:20:10;96504.00;;;-4.10
54746;BMP180;40640;48.130;11.356;2022-12-18T20:24:13;96490.00;;;-4.20
54746;BMP180;40640;48.130;11.356;2022-12-18T20:28:16;96495.00;;;-4.30
54746;BMP180;40640;48.130;11.356;2022-12-18T20:32:19;96506.00;;;-4.10
54746;BMP180;40640;48.130;11.356;2022-12-18T20:36:24;96501.00;;;-4.20
54746;BMP180;40640;48.130;11.356;2022-12-18T20:40:29;96512.00;;;-4.00
54746;BMP180;40640;48.130;11.356;2022-12-18T20:44:32;96519.00;;;-3.70
54746;BMP180;40640;48.130;11.356;2022-12-18T20:48:35;96537.00;;;-3.60
54746;BMP180;40640;48.130;11.356;2022-12-18T20:52:39;96510.00;;;-3.80
54746;BMP180;40640;48.130;11.356;2022-12-18T20:56:42;96489.00;;;-4.20
54746;BMP180;40640;48.130;11.356;2022-12-18T21:00:45;96477.00;;;-4.30
54746;BMP180;40640;48.130;11.356;2022-12-18T21:04:48;96479.00;;;-4.20
54746;BMP180;40640;48.130;11.356;2022-12-18T21:08:53;96479.00;;;-4.20
54746;BMP180;40640;48.130;11.356;2022-12-18T21:12:56;96485.00;;;-4.40
54746;BMP180;40640;48.130;11.356;2022-12-18T21:17:05;96488.00;;;-4.00
54746;BMP180;40640;48.130;11.356;2022-12-18T21:21:07;96487.00;;;-3.90
54746;BMP180;40640;48.130;11.356;2022-12-18T21:25:12;96468.00;;;-4.30
54746;BMP180;40640;48.130;11.356;2022-12-18T21:29:17;96466.00;;;-4.10
54746;BMP180;40640;48.130;11.356;2022-12-18T21:33:20;96475.00;;;-3.90
54746;BMP180;40640;48.130;11.356;2022-12-18T21:37:23;96467.00;;;-4.10
54746;BMP180;40640;48.130;11.356;2022-12-18T21:41:27;96473.00;;;-4.20
54746;BMP180;40640;48.130;11.356;2022-12-18T21:45:48;96464.00;;;-4.00
54746;BMP180;40640;48.130;11.356;2022-12-18T21:49:50;96477.00;;;-4.00
54746;BMP180;40640;48.130;11.356;2022-12-18T21:53:53;96496.00;;;-3.70
54746;BMP180;40640;48.130;11.356;2022-12-18T21:57:58;96500.00;;;-3.70
54746;BMP180;40640;48.130;11.356;2022-12-18T22:06:24;96476.00;;;-3.80
54746;BMP180;40640;48.130;11.356;2022-12-18T22:10:28;96467.00;;;-4.10
54746;BMP180;40640;48.130;11.356;2022-12-18T22:14:32;96452.00;;;-4.10
54746;BMP180;40640;48.130;11.356;2022-12-18T22:18:35;96452.00;;;-4.20
54746;BMP180;40640;48.130;11.356;2022-12-18T22:22:37;96461.00;;;-4.10
54746;BMP180;40640;48.130;11.356;2022-12-18T22:26:41;96448.00;;;-4.40
54746;BMP180;40640;48.130;11.356;2022-12-18T22:30:45;96452.00;;;-4.40
54746;BMP180;40640;48.130;11.356;2022-12-18T22:34:49;96453.00;;;-4.40
54746;BMP180;40640;48.130;11.356;2022-12-18T22:38:52;96437.00;;;-4.30
54746;BMP180;40640;48.130;11.356;2022-12-18T22:42:55;96438.00;;;-4.30
54746;BMP180;40640;48.130;11.356;2022-12-18T22:46:59;96440.00;;;-4.30
54746;BMP180;40640;48.130;11.356;2022-12-18T22:51:08;96453.00;;;-4.00
54746;BMP180;40640;48.130;11.356;2022-12-18T22:55:13;96460.00;;;-4.10
54746;BMP180;40640;48.130;11.356;2022-12-18T22:59:18;96467.00;;;-3.80
54746;BMP180;40640;48.130;11.356;2022-12-18T23:03:22;96464.00;;;-3.50
54746;BMP180;40640;48.130;11.356;2022-12-18T23:07:25;96453.00;;;-3.50
54746;BMP180;40640;48.130;11.356;2022-12-18T23:11:28;96443.00;;;-3.30
54746;BMP180;40640;48.130;11.356;2022-12-18T23:15:31;96438.00;;;-3.20
54746;BMP180;40640;48.130;11.356;2022-12-18T23:19:36;96426.00;;;-3.40
54746;BMP180;40640;48.130;11.356;2022-12-18T23:23:45;96407.00;;;-3.60
54746;BMP180;40640;48.130;11.356;2022-12-18T23:27:48;96404.00;;;-3.70